createdAt,value
2019-05-10T00:00:55.340Z,998.33
2019-05-10T00:01:55.328Z,998.30
2019-05-10T00:02:55.319Z,998.35
2019-05-10T00:03:55.361Z,998.37
2019-05-10T00:04:55.326Z,998.37
2019-05-10T00:05:55.302Z,998.36
2019-05-10T00:06:55.273Z,998.36
2019-05-10T00:07:55.264Z,998.38
2019-05-10T00:08:55.249Z,998.39
2019-05-10T00:09:55.238Z,998.41
2019-05-10T00:10:55.236Z,998.37
2019-05-10T00:11:55.216Z,998.45
2019-05-10T00:12:55.204Z,998.43
2019-05-10T00:13:55.194Z,998.42
2019-05-10T00:14:55.182Z,998.41
2019-05-10T00:15:55.171Z,998.43
2019-05-10T00:16:55.193Z,998.39
2019-05-10T00:17:55.156Z,998.42
2019-05-10T00:18:55.137Z,998.39
2019-05-10T00:19:55.127Z,998.36
2019-05-10T00:20:55.115Z,998.38
2019-05-10T00:21:55.105Z,998.35
2019-05-10T00:22:55.118Z,998.36
2019-05-10T00:23:55.081Z,998.30
2019-05-10T00:25:03.693Z,998.32
2019-05-10T00:25:56.058Z,998.34
2019-05-10T00:26:55.047Z,998.38
2019-05-10T00:27:55.037Z,998.36
2019-05-10T00:28:55.051Z,998.36
2019-05-10T00:29:55.019Z,998.33
2019-05-10T00:30:55.002Z,998.32
2019-05-10T00:31:54.990Z,998.29
2019-05-10T00:32:54.981Z,998.33
2019-05-10T00:33:54.968Z,998.31
2019-05-10T00:34:54.965Z,998.32
2019-05-10T00:35:54.946Z,998.28
2019-05-10T00:36:54.939Z,998.28
2019-05-10T00:37:54.923Z,998.27
2019-05-10T00:38:54.912Z,998.27
2019-05-10T00:39:54.900Z,998.27
2019-05-10T00:40:54.898Z,998.28
2019-05-10T00:41:54.881Z,998.32
2019-05-10T00:42:54.867Z,998.33
2019-05-10T00:43:54.857Z,998.39
2019-05-10T00:44:54.845Z,998.43
2019-05-10T00:45:54.834Z,998.47
2019-05-10T00:46:54.831Z,998.47
2019-05-10T00:47:54.811Z,998.41
2019-05-10T00:48:54.801Z,998.44
2019-05-10T00:49:54.789Z,998.41
2019-05-10T00:50:54.780Z,998.41
2019-05-10T00:51:54.764Z,998.45
2019-05-10T00:52:54.784Z,998.43
2019-05-10T00:53:54.743Z,998.42
2019-05-10T00:54:54.731Z,998.44
2019-05-10T00:55:54.721Z,998.44
2019-05-10T00:56:54.713Z,998.46
2019-05-10T00:57:54.698Z,998.46
2019-05-10T00:58:54.700Z,998.47
2019-05-10T00:59:54.675Z,998.44
2019-05-10T01:00:54.663Z,998.49
2019-05-10T01:01:54.653Z,998.43
2019-05-10T01:02:54.643Z,998.47
2019-05-10T01:03:54.631Z,998.47
2019-05-10T01:04:54.677Z,998.47
2019-05-10T01:05:54.607Z,998.46
2019-05-10T01:06:56.525Z,998.49
2019-05-10T01:07:54.588Z,998.45
2019-05-10T01:08:54.576Z,998.50
2019-05-10T01:09:54.563Z,998.48
2019-05-10T01:10:54.560Z,998.49
2019-05-10T01:11:54.544Z,998.51
2019-05-10T01:12:54.529Z,998.53
2019-05-10T01:13:54.518Z,998.50
2019-05-10T01:14:54.507Z,998.57
2019-05-10T01:15:54.495Z,998.60
2019-05-10T01:16:54.493Z,998.60
2019-05-10T01:17:54.474Z,998.57
2019-05-10T01:18:54.461Z,998.58
2019-05-10T01:19:54.473Z,998.56
2019-05-10T01:20:54.439Z,998.55
2019-05-10T01:21:54.428Z,998.58
2019-05-10T01:22:54.426Z,998.57
2019-05-10T01:23:54.441Z,998.55
2019-05-10T01:24:54.395Z,998.57
2019-05-10T01:25:54.383Z,998.55
2019-05-10T01:26:54.371Z,998.59
2019-05-10T01:27:54.360Z,998.57
2019-05-10T01:28:54.380Z,998.58
2019-05-10T01:29:54.338Z,998.59
2019-05-10T01:30:54.327Z,998.58
2019-05-10T01:31:54.326Z,998.60
2019-05-10T01:32:54.307Z,998.61
2019-05-10T01:33:54.292Z,998.61
2019-05-10T01:34:54.290Z,998.63
2019-05-10T01:35:54.271Z,998.63
2019-05-10T01:36:54.259Z,998.61
2019-05-10T01:37:54.248Z,998.71
2019-05-10T01:38:54.236Z,998.69
2019-05-10T01:39:54.228Z,998.66
2019-05-10T01:40:54.248Z,998.66
2019-05-10T01:41:54.202Z,998.68
2019-05-10T01:42:54.228Z,998.67
2019-05-10T01:43:54.180Z,998.68
2019-05-10T01:44:54.168Z,998.73
2019-05-10T01:45:54.158Z,998.65
2019-05-10T01:46:54.153Z,998.70
2019-05-10T01:47:54.137Z,998.71
2019-05-10T01:48:54.124Z,998.72
2019-05-10T01:49:54.113Z,998.66
2019-05-10T01:50:54.105Z,998.70
2019-05-10T01:51:54.090Z,998.66
2019-05-10T01:52:54.087Z,998.69
2019-05-10T01:53:54.069Z,998.68
2019-05-10T01:54:54.056Z,998.63
2019-05-10T01:55:54.050Z,998.71
2019-05-10T01:56:54.034Z,998.69
2019-05-10T01:57:54.022Z,998.63
2019-05-10T01:58:54.044Z,998.68
2019-05-10T01:59:54.000Z,998.62
2019-05-10T02:00:53.989Z,998.65
2019-05-10T02:01:53.979Z,998.71
2019-05-10T02:02:53.967Z,998.68
2019-05-10T02:03:53.955Z,998.72
2019-05-10T02:04:53.973Z,998.72
2019-05-10T02:05:53.933Z,998.72
2019-05-10T02:06:53.922Z,998.71
2019-05-10T02:07:53.976Z,998.77
2019-05-10T02:08:53.899Z,998.76
2019-05-10T02:09:53.888Z,998.74
2019-05-10T02:10:53.884Z,998.77
2019-05-10T02:11:53.867Z,998.78
2019-05-10T02:12:53.854Z,998.79
2019-05-10T02:13:53.845Z,998.82
2019-05-10T02:14:53.832Z,998.77
2019-05-10T02:15:53.821Z,998.79
2019-05-10T02:16:53.830Z,998.81
2019-05-10T02:17:53.798Z,998.81
2019-05-10T02:18:53.787Z,998.84
2019-05-10T02:19:53.781Z,998.83
2019-05-10T02:20:53.765Z,998.85
2019-05-10T02:21:53.753Z,998.81
2019-05-10T02:22:53.773Z,998.83
2019-05-10T02:23:53.733Z,998.85
2019-05-10T02:24:53.722Z,998.82
2019-05-10T02:26:08.435Z,998.82
2019-05-10T02:26:54.695Z,998.82
2019-05-10T02:27:53.685Z,998.81
2019-05-10T02:28:53.683Z,998.82
2019-05-10T02:29:53.666Z,998.85
2019-05-10T02:30:53.653Z,998.84
2019-05-10T02:31:53.651Z,998.86
2019-05-10T02:32:53.635Z,998.89
2019-05-10T02:33:53.618Z,998.93
2019-05-10T02:34:53.639Z,998.90
2019-05-10T02:35:53.597Z,998.91
2019-05-10T02:36:53.584Z,998.96
2019-05-10T02:37:53.597Z,998.91
2019-05-10T02:38:53.562Z,998.94
2019-05-10T02:39:53.551Z,998.95
2019-05-10T02:40:53.572Z,998.99
2019-05-10T02:41:53.530Z,998.98
2019-05-10T02:42:53.522Z,998.98
2019-05-10T02:43:53.506Z,998.97
2019-05-10T02:44:53.494Z,999.02
2019-05-10T02:45:53.502Z,999.01
2019-05-10T02:46:53.479Z,999.01
2019-05-10T02:47:53.468Z,999.03
2019-05-10T02:48:53.450Z,999.01
2019-05-10T02:49:53.439Z,999.06
2019-05-10T02:50:53.433Z,999.03
2019-05-10T02:51:53.419Z,999.04
2019-05-10T02:52:53.411Z,999.05
2019-05-10T02:53:53.394Z,999.02
2019-05-10T02:54:53.383Z,999.07
2019-05-10T02:55:53.369Z,999.04
2019-05-10T02:56:53.367Z,999.02
2019-05-10T02:57:53.346Z,999.06
2019-05-10T02:58:53.343Z,999.10
2019-05-10T02:59:53.324Z,999.08
2019-05-10T03:00:53.314Z,999.06
2019-05-10T03:01:53.302Z,999.05
2019-05-10T03:02:53.292Z,999.11
2019-05-10T03:03:53.282Z,999.13
2019-05-10T03:04:53.301Z,999.14
2019-05-10T03:05:53.258Z,999.13
2019-05-10T03:06:53.247Z,999.16
2019-05-10T03:07:53.239Z,999.14
2019-05-10T03:08:53.224Z,999.20
2019-05-10T03:09:53.224Z,999.23
2019-05-10T03:10:53.211Z,999.24
2019-05-10T03:11:53.191Z,999.24
2019-05-10T03:12:53.184Z,999.27
2019-05-10T03:13:53.171Z,999.25
2019-05-10T03:14:53.156Z,999.32
2019-05-10T03:15:53.149Z,999.32
2019-05-10T03:16:53.167Z,999.32
2019-05-10T03:17:53.127Z,999.35
2019-05-10T03:18:53.120Z,999.35
2019-05-10T03:19:53.099Z,999.35
2019-05-10T03:20:53.090Z,999.35
2019-05-10T03:21:53.078Z,999.39
2019-05-10T03:22:53.105Z,999.42
2019-05-10T03:23:53.055Z,999.41
2019-05-10T03:24:53.045Z,999.44
2019-05-10T03:25:53.047Z,999.43
2019-05-10T03:26:53.022Z,999.50
2019-05-10T03:27:53.017Z,999.47
2019-05-10T03:28:53.005Z,999.51
2019-05-10T03:29:52.989Z,999.53
2019-05-10T03:30:52.986Z,999.50
2019-05-10T03:31:52.966Z,999.52
2019-05-10T03:32:52.962Z,999.52
2019-05-10T03:33:56.302Z,999.51
2019-05-10T03:34:52.954Z,999.53
2019-05-10T03:35:52.927Z,999.57
2019-05-10T03:36:52.908Z,999.54
2019-05-10T03:37:52.901Z,999.57
2019-05-10T03:38:52.893Z,999.55
2019-05-10T03:39:52.874Z,999.60
2019-05-10T03:40:52.898Z,999.57
2019-05-10T03:41:52.854Z,999.58
2019-05-10T03:42:52.850Z,999.62
2019-05-10T03:43:52.833Z,999.62
2019-05-10T03:44:52.818Z,999.63
2019-05-10T03:45:52.807Z,999.67
2019-05-10T03:46:52.802Z,999.67
2019-05-10T03:47:52.791Z,999.69
2019-05-10T03:48:52.779Z,999.72
2019-05-10T03:49:52.761Z,999.72
2019-05-10T03:50:52.753Z,999.71
2019-05-10T03:51:52.740Z,999.73
2019-05-10T03:52:52.908Z,999.72
2019-05-10T03:53:52.725Z,999.68
2019-05-10T03:54:52.717Z,999.71
2019-05-10T03:55:52.697Z,999.73
2019-05-10T03:57:11.245Z,999.72
2019-05-10T03:57:53.684Z,999.70
2019-05-10T03:58:52.662Z,999.76
2019-05-10T03:59:52.651Z,999.72
2019-05-10T04:00:52.649Z,999.79
2019-05-10T04:01:52.627Z,999.78
2019-05-10T04:02:52.621Z,999.80
2019-05-10T04:03:52.614Z,999.79
2019-05-10T04:04:52.593Z,999.80
2019-05-10T04:05:52.591Z,999.85
2019-05-10T04:06:52.571Z,999.81
2019-05-10T04:07:52.558Z,999.87
2019-05-10T04:08:52.549Z,999.85
2019-05-10T04:09:52.559Z,999.87
2019-05-10T04:10:52.531Z,999.91
2019-05-10T04:11:52.517Z,999.89
2019-05-10T04:12:52.503Z,999.92
2019-05-10T04:13:52.492Z,999.96
2019-05-10T04:14:52.485Z,999.88
2019-05-10T04:15:52.498Z,999.88
2019-05-10T04:16:52.458Z,999.91
2019-05-10T04:17:52.447Z,999.91
2019-05-10T04:18:52.435Z,999.89
2019-05-10T04:19:52.424Z,999.97
2019-05-10T04:20:52.417Z,999.95
2019-05-10T04:21:52.427Z,999.96
2019-05-10T04:22:52.393Z,1000.00
2019-05-10T04:23:52.380Z,999.95
2019-05-10T04:24:52.368Z,1000.02
2019-05-10T04:25:52.370Z,1000.04
2019-05-10T04:26:52.362Z,1000.01
2019-05-10T04:27:52.368Z,999.99
2019-05-10T04:28:52.335Z,1000.02
2019-05-10T04:29:52.313Z,1000.06
2019-05-10T04:30:52.300Z,1000.06
2019-05-10T04:31:52.292Z,1000.09
2019-05-10T04:32:52.284Z,1000.09
2019-05-10T04:33:52.290Z,1000.16
2019-05-10T04:34:52.256Z,1000.19
2019-05-10T04:35:52.244Z,1000.12
2019-05-10T04:36:52.232Z,1000.12
2019-05-10T04:37:52.236Z,1000.13
2019-05-10T04:38:52.216Z,1000.17
2019-05-10T04:39:52.208Z,1000.18
2019-05-10T04:40:52.201Z,1000.20
2019-05-10T04:41:52.176Z,1000.17
2019-05-10T04:42:52.170Z,1000.18
2019-05-10T04:43:52.159Z,1000.18
2019-05-10T04:44:53.375Z,1000.21
2019-05-10T04:45:52.143Z,1000.21
2019-05-10T04:46:52.124Z,1000.20
2019-05-10T04:47:52.110Z,1000.21
2019-05-10T04:48:52.102Z,1000.24
2019-05-10T04:49:52.089Z,1000.21
2019-05-10T04:50:52.076Z,1000.22
2019-05-10T04:51:52.071Z,1000.22
2019-05-10T04:52:52.056Z,1000.24
2019-05-10T04:53:52.041Z,1000.26
2019-05-10T04:54:52.030Z,1000.28
2019-05-10T04:55:52.021Z,1000.30
2019-05-10T04:56:52.008Z,1000.28
2019-05-10T04:57:52.006Z,1000.29
2019-05-10T04:58:51.985Z,1000.33
2019-05-10T04:59:51.974Z,1000.36
2019-05-10T05:00:51.965Z,1000.32
2019-05-10T05:01:51.952Z,1000.35
2019-05-10T05:02:51.941Z,1000.35
2019-05-10T05:03:51.939Z,1000.37
2019-05-10T05:04:51.917Z,1000.32
2019-05-10T05:05:51.907Z,1000.34
2019-05-10T05:06:51.897Z,1000.39
2019-05-10T05:07:51.884Z,1000.38
2019-05-10T05:08:51.897Z,1000.39
2019-05-10T05:09:51.948Z,1000.40
2019-05-10T05:10:51.862Z,1000.41
2019-05-10T05:11:51.842Z,1000.40
2019-05-10T05:12:51.831Z,1000.41
2019-05-10T05:13:51.818Z,1000.43
2019-05-10T05:14:51.805Z,1000.41
2019-05-10T05:15:51.806Z,1000.47
2019-05-10T05:16:51.783Z,1000.51
2019-05-10T05:17:51.772Z,1000.44
2019-05-10T05:18:51.762Z,1000.48
2019-05-10T05:19:51.750Z,1000.48
2019-05-10T05:20:51.738Z,1000.45
2019-05-10T05:21:51.762Z,1000.51
2019-05-10T05:22:51.717Z,1000.54
2019-05-10T05:23:51.705Z,1000.55
2019-05-10T05:24:55.205Z,1000.53
2019-05-10T05:25:52.678Z,1000.52
2019-05-10T05:26:51.672Z,1000.51
2019-05-10T05:28:06.540Z,1000.52
2019-05-10T05:28:52.647Z,1000.50
2019-05-10T05:29:51.639Z,1000.54
2019-05-10T05:30:51.625Z,1000.55
2019-05-10T05:31:53.942Z,1000.54
2019-05-10T05:32:52.632Z,1000.54
2019-05-10T05:33:51.592Z,1000.59
2019-05-10T05:34:51.585Z,1000.62
2019-05-10T05:35:51.569Z,1000.64
2019-05-10T05:36:51.558Z,1000.60
2019-05-10T05:37:51.546Z,1000.65
2019-05-10T05:38:51.572Z,1000.63
2019-05-10T05:39:51.524Z,1000.64
2019-05-10T05:40:51.512Z,1000.66
2019-05-10T05:41:53.059Z,1000.67
2019-05-10T05:42:51.493Z,1000.70
2019-05-10T05:43:51.478Z,1000.66
2019-05-10T05:44:51.500Z,1000.66
2019-05-10T05:45:51.460Z,1000.66
2019-05-10T05:46:51.446Z,1000.69
2019-05-10T05:47:51.434Z,1000.69
2019-05-10T05:48:51.719Z,1000.69
2019-05-10T05:49:51.412Z,1000.70
2019-05-10T05:50:51.431Z,1000.75
2019-05-10T05:51:51.390Z,1000.70
2019-05-10T05:52:51.392Z,1000.75
2019-05-10T05:53:51.411Z,1000.73
2019-05-10T05:54:53.010Z,1000.75
2019-05-10T05:55:52.353Z,1000.76
2019-05-10T05:56:53.135Z,1000.82
2019-05-10T05:57:51.321Z,1000.78
2019-05-10T05:58:51.310Z,1000.77
2019-05-10T05:59:51.300Z,1000.80
2019-05-10T06:00:51.293Z,1000.87
2019-05-10T06:01:51.309Z,1000.80
2019-05-10T06:02:51.267Z,1000.84
2019-05-10T06:03:51.253Z,1000.91
2019-05-10T06:04:51.259Z,1000.90
2019-05-10T06:05:51.233Z,1000.87
2019-05-10T06:06:53.627Z,1000.91
2019-05-10T06:07:52.579Z,1000.86
2019-05-10T06:08:54.411Z,1000.89
2019-05-10T06:09:52.184Z,1000.91
2019-05-10T06:10:57.797Z,1000.84
2019-05-10T06:11:52.162Z,1000.84
2019-05-10T06:12:52.999Z,1000.95
2019-05-10T06:13:51.168Z,1000.92
2019-05-10T06:14:52.401Z,1000.96
2019-05-10T06:15:51.119Z,1000.96
2019-05-10T06:16:53.032Z,1000.97
2019-05-10T06:17:56.453Z,1001.04
2019-05-10T06:18:52.093Z,1000.99
2019-05-10T06:19:51.072Z,1000.96
2019-05-10T06:20:51.062Z,1001.03
2019-05-10T06:21:51.054Z,1001.05
2019-05-10T06:23:05.576Z,1001.05
2019-05-10T06:23:52.027Z,1001.02
2019-05-10T06:24:52.504Z,1001.00
2019-05-10T06:25:51.007Z,1001.08
2019-05-10T06:26:50.994Z,1001.04
2019-05-10T06:27:50.981Z,1001.05
2019-05-10T06:29:03.765Z,1001.05
2019-05-10T06:29:51.971Z,1001.07
2019-05-10T06:30:50.949Z,1001.05
2019-05-10T06:31:50.937Z,1001.08
2019-05-10T06:32:53.239Z,1001.09
2019-05-10T06:33:51.913Z,1001.05
2019-05-10T06:34:50.909Z,1001.14
2019-05-10T06:35:50.900Z,1001.11
2019-05-10T06:36:50.880Z,1001.14
2019-05-10T06:37:50.872Z,1001.16
2019-05-10T06:38:50.858Z,1001.25
2019-05-10T06:39:50.851Z,1001.25
2019-05-10T06:40:50.843Z,1001.24
2019-05-10T06:41:56.267Z,1001.28
2019-05-10T06:42:51.815Z,1001.22
2019-05-10T06:43:52.874Z,1001.22
2019-05-10T06:44:50.791Z,1001.22
2019-05-10T06:45:52.380Z,1001.22
2019-05-10T06:46:50.767Z,1001.20
2019-05-10T06:47:53.466Z,1001.19
2019-05-10T06:48:50.745Z,1001.27
2019-05-10T06:49:52.314Z,1001.28
2019-05-10T06:50:50.723Z,1001.26
2019-05-10T06:51:51.035Z,1001.28
2019-05-10T06:52:52.098Z,1001.27
2019-05-10T06:53:53.544Z,1001.32
2019-05-10T06:54:50.680Z,1001.29
2019-05-10T06:55:50.668Z,1001.29
2019-05-10T06:56:50.655Z,1001.27
2019-05-10T06:57:59.311Z,1001.27
2019-05-10T06:58:51.643Z,1001.28
2019-05-10T06:59:50.623Z,1001.28
2019-05-10T07:00:50.617Z,1001.29
2019-05-10T07:01:52.040Z,1001.28
2019-05-10T07:02:51.070Z,1001.28
2019-05-10T07:03:50.577Z,1001.31
2019-05-10T07:04:51.038Z,1001.40
2019-05-10T07:05:50.557Z,1001.35
2019-05-10T07:06:50.568Z,1001.36
2019-05-10T07:07:50.533Z,1001.33
2019-05-10T07:08:51.970Z,1001.34
2019-05-10T07:10:15.835Z,1001.30
2019-05-10T07:10:51.496Z,1001.33
2019-05-10T07:11:50.492Z,1001.33
2019-05-10T07:12:50.499Z,1001.34
2019-05-10T07:13:53.025Z,1001.33
2019-05-10T07:14:50.452Z,1001.36
2019-05-10T07:15:50.449Z,1001.32
2019-05-10T07:16:50.429Z,1001.33
2019-05-10T07:17:50.419Z,1001.42
2019-05-10T07:18:54.966Z,1001.42
2019-05-10T07:19:54.902Z,1001.33
2019-05-10T07:20:50.384Z,1001.34
2019-05-10T07:21:51.133Z,1001.39
2019-05-10T07:22:50.362Z,1001.37
2019-05-10T07:23:50.351Z,1001.39
2019-05-10T07:24:50.340Z,1001.44
2019-05-10T07:25:50.328Z,1001.47
2019-05-10T07:26:50.316Z,1001.46
2019-05-10T07:27:50.590Z,1001.47
2019-05-10T07:28:51.896Z,1001.56
2019-05-10T07:29:51.283Z,1001.53
2019-05-10T07:30:50.272Z,1001.45
2019-05-10T07:31:50.261Z,1001.52
2019-05-10T07:32:54.601Z,1001.55
2019-05-10T07:33:51.248Z,1001.60
2019-05-10T07:34:59.149Z,1001.51
2019-05-10T07:35:51.218Z,1001.51
2019-05-10T07:36:50.204Z,1001.59
2019-05-10T07:37:51.906Z,1001.55
2019-05-10T07:38:50.181Z,1001.58
2019-05-10T07:39:50.179Z,1001.58
2019-05-10T07:40:50.161Z,1001.62
2019-05-10T07:41:50.153Z,1001.61
2019-05-10T07:42:50.137Z,1001.58
2019-05-10T07:43:50.126Z,1001.62
2019-05-10T07:44:50.121Z,1001.54
2019-05-10T07:45:50.111Z,1001.62
2019-05-10T07:46:53.861Z,1001.64
2019-05-10T07:47:51.080Z,1001.64
2019-05-10T07:48:53.497Z,1001.65
2019-05-10T07:49:50.061Z,1001.67
2019-05-10T07:50:51.914Z,1001.69
2019-05-10T07:51:50.048Z,1001.69
2019-05-10T07:52:50.025Z,1001.74
2019-05-10T07:53:50.015Z,1001.77
2019-05-10T07:54:50.002Z,1001.75
2019-05-10T07:55:49.992Z,1001.79
2019-05-10T07:56:49.979Z,1001.79
2019-05-10T07:57:49.977Z,1001.78
2019-05-10T07:58:49.957Z,1001.80
2019-05-10T07:59:51.267Z,1001.87
2019-05-10T08:00:49.936Z,1001.83
2019-05-10T08:01:49.924Z,1001.82
2019-05-10T08:02:59.241Z,1001.86
2019-05-10T08:03:52.498Z,1001.91
2019-05-10T08:04:53.009Z,1001.95
2019-05-10T08:05:55.169Z,1001.88
2019-05-10T08:06:52.074Z,1001.89
2019-05-10T08:07:49.855Z,1001.92
2019-05-10T08:08:49.914Z,1001.90
2019-05-10T08:09:49.846Z,1001.88
2019-05-10T08:10:49.823Z,1001.88
2019-05-10T08:11:54.147Z,1001.92
2019-05-10T08:12:50.800Z,1001.95
2019-05-10T08:13:49.789Z,1001.89
2019-05-10T08:14:53.376Z,1001.91
2019-05-10T08:15:49.796Z,1001.95
2019-05-10T08:16:58.179Z,1001.98
2019-05-10T08:17:51.042Z,1001.95
2019-05-10T08:18:49.983Z,1002.07
2019-05-10T08:19:49.721Z,1002.07
2019-05-10T08:20:56.708Z,1002.04
2019-05-10T08:21:56.458Z,1002.08
2019-05-10T08:22:52.552Z,1002.08
2019-05-10T08:23:51.896Z,1002.07
2019-05-10T08:24:52.894Z,1002.09
2019-05-10T08:25:53.092Z,1002.13
2019-05-10T08:26:55.503Z,1002.13
2019-05-10T08:27:55.160Z,1002.07
2019-05-10T08:28:52.391Z,1002.14
2019-05-10T08:29:54.568Z,1002.07
2019-05-10T08:30:53.621Z,1002.14
2019-05-10T08:31:53.675Z,1002.18
2019-05-10T08:32:52.622Z,1002.16
2019-05-10T08:33:56.075Z,1002.17
2019-05-10T08:34:54.841Z,1002.20
2019-05-10T08:35:54.539Z,1002.24
2019-05-10T08:36:51.950Z,1002.16
2019-05-10T08:37:49.518Z,1002.24
2019-05-10T08:39:01.538Z,1002.19
2019-05-10T08:39:55.787Z,1002.20
2019-05-10T08:40:52.712Z,1002.16
2019-05-10T08:42:03.304Z,1002.18
2019-05-10T08:43:00.208Z,1002.17
2019-05-10T08:43:52.563Z,1002.18
2019-05-10T08:44:53.680Z,1002.15
2019-05-10T08:45:52.467Z,1002.25
2019-05-10T08:46:49.422Z,1002.24
2019-05-10T08:47:52.929Z,1002.17
2019-05-10T08:48:53.629Z,1002.19
2019-05-10T08:50:06.356Z,1002.17
2019-05-10T08:50:56.772Z,1002.18
2019-05-10T08:51:52.268Z,1002.14
2019-05-10T08:52:49.367Z,1002.23
2019-05-10T08:53:53.508Z,1002.18
2019-05-10T08:54:54.964Z,1002.19
2019-05-10T08:55:49.315Z,1002.20
2019-05-10T08:56:55.017Z,1002.20
2019-05-10T08:57:52.350Z,1002.22
2019-05-10T08:58:49.282Z,1002.25
2019-05-10T08:59:54.211Z,1002.21
2019-05-10T09:01:01.310Z,1002.23
2019-05-10T09:01:51.454Z,1002.27
2019-05-10T09:02:49.237Z,1002.26
2019-05-10T09:03:55.117Z,1002.27
2019-05-10T09:04:52.479Z,1002.28
2019-05-10T09:05:49.203Z,1002.26
2019-05-10T09:06:55.435Z,1002.25
2019-05-10T09:07:52.090Z,1002.29
2019-05-10T09:08:52.981Z,1002.26
2019-05-10T09:09:52.862Z,1002.28
2019-05-10T09:10:49.147Z,1002.30
2019-05-10T09:11:49.137Z,1002.28
2019-05-10T09:12:54.165Z,1002.32
2019-05-10T09:13:50.112Z,1002.34
2019-05-10T09:14:49.133Z,1002.33
2019-05-10T09:15:56.053Z,1002.36
2019-05-10T09:16:57.530Z,1002.35
2019-05-10T09:17:52.588Z,1002.39
2019-05-10T09:18:51.169Z,1002.47
2019-05-10T09:19:49.046Z,1002.44
2019-05-10T09:20:49.035Z,1002.40
2019-05-10T09:21:52.218Z,1002.38
2019-05-10T09:22:52.653Z,1002.43
2019-05-10T09:23:52.883Z,1002.41
2019-05-10T09:24:50.118Z,1002.52
2019-05-10T09:25:48.978Z,1002.48
2019-05-10T09:26:52.782Z,1002.45
2019-05-10T09:27:49.986Z,1002.48
2019-05-10T09:28:53.483Z,1002.50
2019-05-10T09:29:49.931Z,1002.54
2019-05-10T09:30:57.610Z,1002.50
2019-05-10T09:31:51.269Z,1002.50
2019-05-10T09:32:48.900Z,1002.51
2019-05-10T09:33:51.157Z,1002.53
2019-05-10T09:34:48.877Z,1002.53
2019-05-10T09:35:52.365Z,1002.50
2019-05-10T09:36:49.853Z,1002.51
2019-05-10T09:37:54.226Z,1002.56
2019-05-10T09:38:49.867Z,1002.51
2019-05-10T09:39:55.362Z,1002.57
2019-05-10T09:40:52.983Z,1002.59
2019-05-10T09:41:52.483Z,1002.61
2019-05-10T09:42:48.789Z,1002.64
2019-05-10T09:43:50.577Z,1002.65
2019-05-10T09:44:48.771Z,1002.73
2019-05-10T09:45:48.755Z,1002.63
2019-05-10T09:46:48.747Z,1002.66
2019-05-10T09:47:48.730Z,1002.62
2019-05-10T09:48:54.529Z,1002.67
2019-05-10T09:49:56.614Z,1002.70
2019-05-10T09:50:55.117Z,1002.63
2019-05-10T09:51:49.684Z,1002.69
2019-05-10T09:52:48.675Z,1002.74
2019-05-10T09:53:48.767Z,1002.74
2019-05-10T09:54:49.583Z,1002.72
2019-05-10T09:55:55.304Z,1002.70
2019-05-10T09:56:52.344Z,1002.78
2019-05-10T09:57:48.623Z,1002.78
2019-05-10T09:58:48.681Z,1002.82
2019-05-10T09:59:48.595Z,1002.83
2019-05-10T10:00:48.683Z,1002.84
2019-05-10T10:01:48.585Z,1002.80
2019-05-10T10:02:56.270Z,1002.91
2019-05-10T10:03:49.551Z,1002.89
2019-05-10T10:04:48.540Z,1002.92
2019-05-10T10:05:48.546Z,1002.92
2019-05-10T10:06:52.706Z,1002.99
2019-05-10T10:07:48.538Z,1003.01
2019-05-10T10:08:51.900Z,1002.94
2019-05-10T10:09:48.486Z,1003.04
2019-05-10T10:10:48.474Z,1002.98
2019-05-10T10:11:57.756Z,1003.04
2019-05-10T10:12:49.470Z,1003.06
2019-05-10T10:13:58.488Z,1003.02
2019-05-10T10:14:49.425Z,1002.97
2019-05-10T10:15:52.039Z,1003.05
2019-05-10T10:16:57.840Z,1002.96
2019-05-10T10:17:49.392Z,1003.05
2019-05-10T10:18:48.394Z,1002.98
2019-05-10T10:19:48.370Z,1002.96
2019-05-10T10:20:48.360Z,1002.95
2019-05-10T10:21:48.348Z,1002.96
2019-05-10T10:22:54.153Z,1003.01
2019-05-10T10:23:49.355Z,1003.00
2019-05-10T10:24:49.068Z,1003.07
2019-05-10T10:25:49.307Z,1003.04
2019-05-10T10:26:48.358Z,1003.03
2019-05-10T10:27:48.285Z,1002.99
2019-05-10T10:28:54.462Z,1003.05
2019-05-10T10:29:49.278Z,1003.06
2019-05-10T10:30:50.405Z,1003.03
2019-05-10T10:31:55.288Z,1003.00
2019-05-10T10:32:49.224Z,1003.12
2019-05-10T10:33:54.946Z,1003.11
2019-05-10T10:34:54.063Z,1003.11
2019-05-10T10:35:49.198Z,1003.13
2019-05-10T10:36:48.179Z,1003.15
2019-05-10T10:37:48.173Z,1003.15
2019-05-10T10:38:49.680Z,1003.09
2019-05-10T10:39:48.146Z,1003.17
2019-05-10T10:40:48.135Z,1003.14
2019-05-10T10:41:49.202Z,1003.20
2019-05-10T10:42:48.111Z,1003.21
2019-05-10T10:43:48.540Z,1003.19
2019-05-10T10:44:48.387Z,1003.17
2019-05-10T10:45:48.078Z,1003.23
2019-05-10T10:46:48.231Z,1003.20
2019-05-10T10:47:48.063Z,1003.18
2019-05-10T10:48:49.321Z,1003.18
2019-05-10T10:49:48.033Z,1003.23
2019-05-10T10:50:53.363Z,1003.23
2019-05-10T10:51:49.010Z,1003.20
2019-05-10T10:52:48.001Z,1003.23
2019-05-10T10:53:47.994Z,1003.23
2019-05-10T10:54:48.095Z,1003.24
2019-05-10T10:55:54.100Z,1003.24
2019-05-10T10:56:48.954Z,1003.24
2019-05-10T10:57:48.246Z,1003.22
2019-05-10T10:58:50.075Z,1003.27
2019-05-10T10:59:47.951Z,1003.22
2019-05-10T11:00:48.248Z,1003.29
2019-05-10T11:01:56.652Z,1003.21
2019-05-10T11:02:52.065Z,1003.27
2019-05-10T11:03:49.016Z,1003.33
2019-05-10T11:04:48.978Z,1003.26
2019-05-10T11:05:47.860Z,1003.27
2019-05-10T11:06:47.847Z,1003.33
2019-05-10T11:07:48.057Z,1003.35
2019-05-10T11:08:47.820Z,1003.43
2019-05-10T11:09:47.809Z,1003.41
2019-05-10T11:10:47.796Z,1003.48
2019-05-10T11:11:47.820Z,1003.38
2019-05-10T11:12:47.775Z,1003.38
2019-05-10T11:13:57.337Z,1003.44
2019-05-10T11:14:48.750Z,1003.38
2019-05-10T11:15:47.741Z,1003.41
2019-05-10T11:16:52.815Z,1003.34
2019-05-10T11:17:50.624Z,1003.42
2019-05-10T11:18:47.707Z,1003.37
2019-05-10T11:19:47.695Z,1003.29
2019-05-10T11:20:49.495Z,1003.31
2019-05-10T11:21:48.672Z,1003.42
2019-05-10T11:22:49.726Z,1003.33
2019-05-10T11:23:48.680Z,1003.39
2019-05-10T11:24:53.388Z,1003.35
2019-05-10T11:25:54.711Z,1003.45
2019-05-10T11:26:48.617Z,1003.54
2019-05-10T11:27:52.906Z,1003.53
2019-05-10T11:28:48.593Z,1003.49
2019-05-10T11:29:47.592Z,1003.64
2019-05-10T11:30:47.572Z,1003.40
2019-05-10T11:31:50.161Z,1003.45
2019-05-10T11:32:48.548Z,1003.42
2019-05-10T11:33:56.122Z,1003.43
2019-05-10T11:34:48.534Z,1003.44
2019-05-10T11:35:47.522Z,1003.50
2019-05-10T11:36:48.321Z,1003.58
2019-05-10T11:37:47.502Z,1003.61
2019-05-10T11:38:56.543Z,1003.60
2019-05-10T11:39:50.454Z,1003.75
2019-05-10T11:40:47.470Z,1003.62
2019-05-10T11:41:52.777Z,1003.58
2019-05-10T11:42:50.876Z,1003.64
2019-05-10T11:43:47.427Z,1003.58
2019-05-10T11:44:54.337Z,1003.64
2019-05-10T11:45:48.410Z,1003.57
2019-05-10T11:46:47.392Z,1003.53
2019-05-10T11:47:47.972Z,1003.59
2019-05-10T11:48:50.739Z,1003.66
2019-05-10T11:49:47.359Z,1003.52
2019-05-10T11:50:47.346Z,1003.61
2019-05-10T11:51:47.832Z,1003.63
2019-05-10T11:52:51.076Z,1003.63
2019-05-10T11:53:49.002Z,1003.60
2019-05-10T11:54:48.300Z,1003.58
2019-05-10T11:55:47.291Z,1003.55
2019-05-10T11:56:47.280Z,1003.61
2019-05-10T11:58:00.767Z,1003.70
2019-05-10T11:58:54.931Z,1003.65
2019-05-10T11:59:48.243Z,1003.60
2019-05-10T12:00:47.236Z,1003.60
2019-05-10T12:01:55.089Z,1003.63
2019-05-10T12:03:03.397Z,1003.64
2019-05-10T12:03:48.199Z,1003.66
2019-05-10T12:04:47.189Z,1003.67
2019-05-10T12:05:53.154Z,1003.65
2019-05-10T12:06:50.425Z,1003.70
2019-05-10T12:07:47.156Z,1003.78
2019-05-10T12:08:47.155Z,1003.71
2019-05-10T12:09:53.291Z,1003.63
2019-05-10T12:10:53.163Z,1003.79
2019-05-10T12:11:52.035Z,1003.68
2019-05-10T12:13:01.772Z,1003.62
2019-05-10T12:13:48.097Z,1003.62